CDT,Max TemperatureF,Mean TemperatureF,Min TemperatureF,Max Dew PointF,MeanDew PointF,Min DewpointF,Max Humidity, Mean Humidity, Min Humidity, Max Sea Level PressureIn, Mean Sea Level PressureIn, Min Sea Level PressureIn, Max VisibilityMiles, Mean VisibilityMiles, Min VisibilityMiles, Max Wind SpeedMPH, Mean Wind SpeedMPH, Max Gust SpeedMPH,PrecipitationIn, CloudCover, Events, WindDirDegrees
2012-6-1,69,59,49,52,47,41,89,65,40,29.94,29.88,29.77,10,10,8,18,7,25,0.00,6,,319
2012-6-2,80,64,47,57,48,45,93,63,32,29.99,29.91,29.84,10,10,7,21,7,25,0.00,1,,234
2012-6-3,90,74,58,66,55,48,90,58,26,29.92,29.87,29.81,10,10,8,12,4,22,0.06,1,Rain,254
2012-6-4,89,77,64,72,66,62,100,73,46,29.86,29.80,29.70,10,6,0,17,6,30,0.68,5,Fog-Rain-Thunderstorm,244
2012-6-5,83,72,60,62,56,49,90,62,33,29.91,29.85,29.79,10,10,9,17,7,23,0.00,2,,45
2012-6-6,80,68,55,55,51,46,86,59,32,30.04,29.97,29.90,10,10,10,17,6,22,0.00,0,,52
2012-6-7,83,68,52,54,50,47,100,65,30,30.09,30.05,30.02,10,10,8,16,5,25,0.00,0,,66
2012-6-8,87,70,52,56,51,46,93,59,25,30.09,30.02,29.95,10,9,2,14,3,20,0.00,0,,100
2012-6-9,91,75,58,60,57,54,86,58,29,29.99,29.94,29.87,10,10,10,16,6,33,0.00,1,,154
2012-6-10,83,73,62,67,64,56,90,74,57,29.96,29.93,29.88,10,10,10,15,7,21,0.00,6,,134
2012-6-11,89,78,66,72,68,63,93,74,55,30.00,29.92,29.87,10,9,2,37,6,45,0.14,6,Rain-Thunderstorm,229
2012-6-12,86,72,57,65,58,48,93,63,32,30.06,30.01,29.94,10,10,7,15,7,18,0.00,0,,322
2012-6-13,87,71,54,55,51,45,93,59,25,30.10,30.04,29.99,10,10,10,12,4,16,0.00,0,,53
2012-6-14,91,73,54,60,55,48,93,59,24,30.06,30.01,29.96,10,10,10,12,3,15,0.00,0,,99
2012-6-15,93,77,60,68,62,59,93,65,36,30.06,30.02,29.97,10,10,7,13,4,21,0.00,0,,168
2012-6-16,94,84,73,70,67,63,87,62,36,30.13,30.06,29.98,10,9,7,15,7,22,0.00,1,,198
2012-6-17,91,81,70,68,67,64,84,64,44,30.03,29.96,29.89,10,10,5,18,7,20,0.02,2,Rain,211
2012-6-18,93,81,69,64,62,58,78,55,32,29.95,29.91,29.88,10,10,3,18,9,30,0.00,0,,205
2012-6-19,93,82,70,67,62,59,73,55,36,30.06,30.02,29.95,10,10,10,16,8,23,0.00,1,,186
2012-6-20,94,82,69,64,60,55,78,54,30,30.10,30.05,29.98,10,10,10,14,7,22,0.00,2,,182
2012-6-21,94,80,65,66,62,58,84,57,30,30.05,29.98,29.91,10,10,10,16,6,23,0.00,1,,249
2012-6-22,93,81,69,66,59,51,90,58,26,29.99,29.95,29.89,10,10,10,15,6,30,0.00,2,,8
2012-6-23,95,77,59,59,54,45,84,52,19,29.99,29.95,29.90,10,10,10,13,3,15,0.00,0,,68
2012-6-24,99,81,62,65,58,51,90,56,22,29.97,29.92,29.86,10,10,10,13,2,16,0.00,0,,44
2012-6-25,100,84,67,65,62,49,87,58,29,29.88,29.84,29.79,10,10,10,18,7,23,0.00,1,,40
2012-6-26,90,75,60,50,44,36,60,38,16,29.95,29.90,29.86,10,10,10,18,8,24,0.00,0,,60
2012-6-27,98,76,54,54,48,38,93,54,14,30.01,29.95,29.91,10,10,10,10,3,15,0.00,0,,210
2012-6-28,105,83,61,65,57,52,78,48,17,29.99,29.94,29.90,10,10,10,17,7,21,0.00,0,,224
2012-6-29,108,90,71,69,64,57,79,50,20,29.93,29.87,29.80,10,9,6,13,5,16,0.00,0,,248
2012-6-30,106,91,75,69,65,60,71,48,24,29.86,29.83,29.80,10,9,6,15,6,17,0.00,0,,250